sensor_id;sensor_type;location;lat;lon;timestamp;P1;durP1;ratioP1;P2;durP2;ratioP2
12145;SDS011;6136;47.032;15.398;2023-02-18T00:01:35;10.77;;;7.33;;
12145;SDS011;6136;47.032;15.398;2023-02-18T00:04:03;13.00;;;7.30;;
12145;SDS011;6136;47.032;15.398;2023-02-18T00:06:33;16.17;;;7.90;;
12145;SDS011;6136;47.032;15.398;2023-02-18T00:09:03;11.63;;;7.43;;
12145;SDS011;6136;47.032;15.398;2023-02-18T00:11:34;14.77;;;8.07;;
12145;SDS011;6136;47.032;15.398;2023-02-18T00:14:04;13.37;;;8.20;;
12145;SDS011;6136;47.032;15.398;2023-02-18T00:16:34;15.50;;;7.70;;
12145;SDS011;6136;47.032;15.398;2023-02-18T00:19:03;12.70;;;7.57;;
12145;SDS011;6136;47.032;15.398;2023-02-18T00:21:33;11.73;;;6.83;;
12145;SDS011;6136;47.032;15.398;2023-02-18T00:24:02;16.47;;;7.27;;
12145;SDS011;6136;47.032;15.398;2023-02-18T00:26:30;11.47;;;7.10;;
12145;SDS011;6136;47.032;15.398;2023-02-18T00:29:00;11.77;;;7.40;;
12145;SDS011;6136;47.032;15.398;2023-02-18T00:31:30;15.03;;;8.10;;
12145;SDS011;6136;47.032;15.398;2023-02-18T00:34:00;14.10;;;7.53;;
12145;SDS011;6136;47.032;15.398;2023-02-18T00:36:29;17.90;;;8.20;;
12145;SDS011;6136;47.032;15.398;2023-02-18T00:39:00;14.23;;;8.13;;
12145;SDS011;6136;47.032;15.398;2023-02-18T00:41:32;16.17;;;8.63;;
12145;SDS011;6136;47.032;15.398;2023-02-18T00:44:02;11.03;;;7.53;;
12145;SDS011;6136;47.032;15.398;2023-02-18T00:46:32;12.43;;;7.70;;
12145;SDS011;6136;47.032;15.398;2023-02-18T00:49:01;11.70;;;7.63;;
12145;SDS011;6136;47.032;15.398;2023-02-18T00:51:30;14.20;;;7.37;;
12145;SDS011;6136;47.032;15.398;2023-02-18T00:53:58;12.97;;;7.40;;
12145;SDS011;6136;47.032;15.398;2023-02-18T00:56:30;11.03;;;7.57;;
12145;SDS011;6136;47.032;15.398;2023-02-18T00:58:58;12.07;;;7.00;;
12145;SDS011;6136;47.032;15.398;2023-02-18T01:01:28;10.43;;;6.90;;
12145;SDS011;6136;47.032;15.398;2023-02-18T01:03:56;11.97;;;6.93;;
12145;SDS011;6136;47.032;15.398;2023-02-18T01:06:25;12.43;;;6.40;;
12145;SDS011;6136;47.032;15.398;2023-02-18T01:08:53;13.00;;;6.30;;
12145;SDS011;6136;47.032;15.398;2023-02-18T01:11:21;9.97;;;5.80;;
12145;SDS011;6136;47.032;15.398;2023-02-18T01:13:49;12.80;;;6.13;;
12145;SDS011;6136;47.032;15.398;2023-02-18T01:16:18;9.73;;;6.03;;
12145;SDS011;6136;47.032;15.398;2023-02-18T01:18:47;12.43;;;6.23;;
12145;SDS011;6136;47.032;15.398;2023-02-18T01:21:16;10.83;;;6.30;;
12145;SDS011;6136;47.032;15.398;2023-02-18T01:23:44;11.50;;;5.90;;
12145;SDS011;6136;47.032;15.398;2023-02-18T01:26:14;9.13;;;5.77;;
12145;SDS011;6136;47.032;15.398;2023-02-18T01:28:42;15.43;;;6.37;;
12145;SDS011;6136;47.032;15.398;2023-02-18T01:31:11;12.47;;;5.70;;
12145;SDS011;6136;47.032;15.398;2023-02-18T01:33:41;9.43;;;5.37;;
12145;SDS011;6136;47.032;15.398;2023-02-18T01:36:11;12.13;;;5.90;;
12145;SDS011;6136;47.032;15.398;2023-02-18T01:38:39;10.27;;;5.93;;
12145;SDS011;6136;47.032;15.398;2023-02-18T01:41:08;10.03;;;5.60;;
12145;SDS011;6136;47.032;15.398;2023-02-18T01:43:37;9.30;;;5.80;;
12145;SDS011;6136;47.032;15.398;2023-02-18T01:46:15;8.40;;;4.80;;
12145;SDS011;6136;47.032;15.398;2023-02-18T01:48:46;9.23;;;4.97;;
12145;SDS011;6136;47.032;15.398;2023-02-18T01:51:19;8.87;;;5.53;;
12145;SDS011;6136;47.032;15.398;2023-02-18T01:53:52;10.80;;;6.07;;
12145;SDS011;6136;47.032;15.398;2023-02-18T01:56:24;6.50;;;4.73;;
12145;SDS011;6136;47.032;15.398;2023-02-18T01:58:56;12.23;;;5.97;;
12145;SDS011;6136;47.032;15.398;2023-02-18T02:01:26;6.47;;;5.00;;
12145;SDS011;6136;47.032;15.398;2023-02-18T02:03:55;9.67;;;5.20;;
12145;SDS011;6136;47.032;15.398;2023-02-18T02:06:25;12.60;;;5.60;;
12145;SDS011;6136;47.032;15.398;2023-02-18T02:08:54;9.40;;;5.33;;
12145;SDS011;6136;47.032;15.398;2023-02-18T02:11:30;9.10;;;5.77;;
12145;SDS011;6136;47.032;15.398;2023-02-18T02:14:21;6.63;;;4.70;;
12145;SDS011;6136;47.032;15.398;2023-02-18T02:17:03;7.50;;;4.77;;
12145;SDS011;6136;47.032;15.398;2023-02-18T02:20:01;7.97;;;4.77;;
12145;SDS011;6136;47.032;15.398;2023-02-18T02:26:11;13.37;;;5.03;;
12145;SDS011;6136;47.032;15.398;2023-02-18T02:28:59;12.07;;;5.20;;
12145;SDS011;6136;47.032;15.398;2023-02-18T02:31:52;7.90;;;5.37;;
12145;SDS011;6136;47.032;15.398;2023-02-18T02:34:38;9.93;;;4.70;;
12145;SDS011;6136;47.032;15.398;2023-02-18T02:37:17;9.33;;;5.90;;
12145;SDS011;6136;47.032;15.398;2023-02-18T02:39:56;8.97;;;5.43;;
12145;SDS011;6136;47.032;15.398;2023-02-18T02:42:37;9.80;;;5.20;;
12145;SDS011;6136;47.032;15.398;2023-02-18T02:45:17;10.43;;;5.17;;
12145;SDS011;6136;47.032;15.398;2023-02-18T02:47:53;7.37;;;4.73;;
12145;SDS011;6136;47.032;15.398;2023-02-18T02:50:33;7.90;;;4.97;;
12145;SDS011;6136;47.032;15.398;2023-02-18T02:53:09;10.07;;;5.20;;
12145;SDS011;6136;47.032;15.398;2023-02-18T02:55:42;9.40;;;5.53;;
12145;SDS011;6136;47.032;15.398;2023-02-18T02:58:12;9.07;;;5.03;;
12145;SDS011;6136;47.032;15.398;2023-02-18T03:00:44;9.37;;;5.20;;
12145;SDS011;6136;47.032;15.398;2023-02-18T03:03:38;7.57;;;5.37;;
12145;SDS011;6136;47.032;15.398;2023-02-18T03:06:26;9.73;;;5.60;;
12145;SDS011;6136;47.032;15.398;2023-02-18T03:09:08;8.50;;;5.03;;
12145;SDS011;6136;47.032;15.398;2023-02-18T03:11:43;9.60;;;5.83;;
12145;SDS011;6136;47.032;15.398;2023-02-18T03:14:19;8.23;;;5.17;;
12145;SDS011;6136;47.032;15.398;2023-02-18T03:16:57;8.50;;;5.30;;
12145;SDS011;6136;47.032;15.398;2023-02-18T03:19:30;11.03;;;5.50;;
12145;SDS011;6136;47.032;15.398;2023-02-18T03:22:04;11.60;;;5.13;;
12145;SDS011;6136;47.032;15.398;2023-02-18T03:24:37;8.20;;;5.20;;
12145;SDS011;6136;47.032;15.398;2023-02-18T03:27:08;7.40;;;4.80;;
12145;SDS011;6136;47.032;15.398;2023-02-18T03:29:40;9.53;;;6.03;;
12145;SDS011;6136;47.032;15.398;2023-02-18T03:32:14;9.60;;;5.27;;
12145;SDS011;6136;47.032;15.398;2023-02-18T03:34:48;11.40;;;5.97;;
12145;SDS011;6136;47.032;15.398;2023-02-18T03:37:21;12.40;;;6.63;;
12145;SDS011;6136;47.032;15.398;2023-02-18T03:39:51;10.00;;;6.07;;
12145;SDS011;6136;47.032;15.398;2023-02-18T03:42:24;9.73;;;5.37;;
12145;SDS011;6136;47.032;15.398;2023-02-18T03:44:54;11.03;;;5.67;;
12145;SDS011;6136;47.032;15.398;2023-02-18T03:47:22;8.17;;;5.50;;
12145;SDS011;6136;47.032;15.398;2023-02-18T03:49:51;8.00;;;5.10;;
12145;SDS011;6136;47.032;15.398;2023-02-18T03:52:20;8.00;;;5.83;;
12145;SDS011;6136;47.032;15.398;2023-02-18T03:54:49;9.20;;;5.80;;
12145;SDS011;6136;47.032;15.398;2023-02-18T03:57:17;11.37;;;5.67;;
12145;SDS011;6136;47.032;15.398;2023-02-18T03:59:45;11.33;;;6.77;;
12145;SDS011;6136;47.032;15.398;2023-02-18T04:02:14;8.37;;;5.83;;
12145;SDS011;6136;47.032;15.398;2023-02-18T04:04:42;8.53;;;5.80;;
12145;SDS011;6136;47.032;15.398;2023-02-18T04:07:10;9.40;;;5.53;;
12145;SDS011;6136;47.032;15.398;2023-02-18T04:09:39;8.23;;;4.70;;
12145;SDS011;6136;47.032;15.398;2023-02-18T04:12:07;9.07;;;5.73;;
12145;SDS011;6136;47.032;15.398;2023-02-18T04:14:36;7.57;;;5.37;;
12145;SDS011;6136;47.032;15.398;2023-02-18T04:17:04;9.67;;;5.57;;
12145;SDS011;6136;47.032;15.398;2023-02-18T04:19:32;11.43;;;5.73;;
12145;SDS011;6136;47.032;15.398;2023-02-18T04:22:00;8.10;;;5.83;;
12145;SDS011;6136;47.032;15.398;2023-02-18T04:24:29;7.23;;;4.53;;
12145;SDS011;6136;47.032;15.398;2023-02-18T04:26:58;7.27;;;5.03;;
12145;SDS011;6136;47.032;15.398;2023-02-18T04:29:26;9.37;;;5.07;;
12145;SDS011;6136;47.032;15.398;2023-02-18T04:31:54;9.67;;;5.73;;
12145;SDS011;6136;47.032;15.398;2023-02-18T04:34:23;6.93;;;5.07;;
12145;SDS011;6136;47.032;15.398;2023-02-18T04:36:51;8.80;;;5.50;;
12145;SDS011;6136;47.032;15.398;2023-02-18T04:39:19;7.03;;;4.70;;
12145;SDS011;6136;47.032;15.398;2023-02-18T04:41:47;10.10;;;4.80;;
12145;SDS011;6136;47.032;15.398;2023-02-18T04:44:17;7.20;;;4.90;;
12145;SDS011;6136;47.032;15.398;2023-02-18T04:46:45;10.77;;;5.90;;
12145;SDS011;6136;47.032;15.398;2023-02-18T04:49:13;6.37;;;4.33;;
12145;SDS011;6136;47.032;15.398;2023-02-18T04:51:41;9.97;;;4.97;;
12145;SDS011;6136;47.032;15.398;2023-02-18T04:54:09;15.00;;;5.77;;
12145;SDS011;6136;47.032;15.398;2023-02-18T04:56:37;9.40;;;4.97;;
12145;SDS011;6136;47.032;15.398;2023-02-18T04:59:05;5.97;;;4.40;;
12145;SDS011;6136;47.032;15.398;2023-02-18T05:01:35;7.83;;;4.77;;
12145;SDS011;6136;47.032;15.398;2023-02-18T05:04:03;6.00;;;4.00;;
12145;SDS011;6136;47.032;15.398;2023-02-18T05:06:31;6.80;;;4.67;;
12145;SDS011;6136;47.032;15.398;2023-02-18T05:09:00;6.33;;;3.90;;
12145;SDS011;6136;47.032;15.398;2023-02-18T05:11:28;8.23;;;5.03;;
12145;SDS011;6136;47.032;15.398;2023-02-18T05:13:56;7.10;;;4.50;;
12145;SDS011;6136;47.032;15.398;2023-02-18T05:16:24;6.30;;;4.97;;
12145;SDS011;6136;47.032;15.398;2023-02-18T05:18:54;8.57;;;4.50;;
12145;SDS011;6136;47.032;15.398;2023-02-18T05:21:22;11.13;;;4.97;;
12145;SDS011;6136;47.032;15.398;2023-02-18T05:23:50;7.17;;;4.50;;
12145;SDS011;6136;47.032;15.398;2023-02-18T05:26:18;9.23;;;4.87;;
12145;SDS011;6136;47.032;15.398;2023-02-18T05:28:46;6.67;;;4.73;;
12145;SDS011;6136;47.032;15.398;2023-02-18T05:31:14;9.20;;;4.60;;
12145;SDS011;6136;47.032;15.398;2023-02-18T05:33:43;7.33;;;5.00;;
12145;SDS011;6136;47.032;15.398;2023-02-18T05:36:13;7.27;;;4.73;;
12145;SDS011;6136;47.032;15.398;2023-02-18T05:38:41;6.50;;;4.87;;
12145;SDS011;6136;47.032;15.398;2023-02-18T05:41:09;7.37;;;4.63;;
12145;SDS011;6136;47.032;15.398;2023-02-18T05:43:37;7.07;;;5.13;;
12145;SDS011;6136;47.032;15.398;2023-02-18T05:46:19;7.90;;;4.60;;
12145;SDS011;6136;47.032;15.398;2023-02-18T05:48:48;6.60;;;4.67;;
12145;SDS011;6136;47.032;15.398;2023-02-18T05:51:17;8.77;;;5.30;;
12145;SDS011;6136;47.032;15.398;2023-02-18T05:53:45;9.30;;;5.30;;
12145;SDS011;6136;47.032;15.398;2023-02-18T05:56:14;10.73;;;5.50;;
12145;SDS011;6136;47.032;15.398;2023-02-18T05:58:42;5.90;;;4.80;;
12145;SDS011;6136;47.032;15.398;2023-02-18T06:01:10;9.20;;;5.27;;
12145;SDS011;6136;47.032;15.398;2023-02-18T06:03:38;6.03;;;4.10;;
12145;SDS011;6136;47.032;15.398;2023-02-18T06:06:06;7.23;;;5.30;;
12145;SDS011;6136;47.032;15.398;2023-02-18T06:08:36;7.37;;;5.07;;
12145;SDS011;6136;47.032;15.398;2023-02-18T06:11:05;13.17;;;4.93;;
12145;SDS011;6136;47.032;15.398;2023-02-18T06:13:33;9.17;;;5.03;;
12145;SDS011;6136;47.032;15.398;2023-02-18T06:16:01;8.37;;;4.10;;
12145;SDS011;6136;47.032;15.398;2023-02-18T06:18:29;6.50;;;4.77;;
12145;SDS011;6136;47.032;15.398;2023-02-18T06:20:57;6.90;;;4.90;;
12145;SDS011;6136;47.032;15.398;2023-02-18T06:23:26;10.20;;;5.40;;
12145;SDS011;6136;47.032;15.398;2023-02-18T06:25:55;11.73;;;5.43;;
12145;SDS011;6136;47.032;15.398;2023-02-18T06:28:24;12.37;;;6.57;;
12145;SDS011;6136;47.032;15.398;2023-02-18T06:30:52;7.77;;;5.33;;
12145;SDS011;6136;47.032;15.398;2023-02-18T06:33:20;8.10;;;6.27;;
12145;SDS011;6136;47.032;15.398;2023-02-18T06:35:51;6.07;;;4.73;;
12145;SDS011;6136;47.032;15.398;2023-02-18T06:38:20;6.53;;;4.70;;
12145;SDS011;6136;47.032;15.398;2023-02-18T06:40:49;8.13;;;4.83;;
12145;SDS011;6136;47.032;15.398;2023-02-18T06:43:19;6.90;;;4.63;;
12145;SDS011;6136;47.032;15.398;2023-02-18T06:45:48;8.13;;;5.30;;
12145;SDS011;6136;47.032;15.398;2023-02-18T06:48:16;7.20;;;5.10;;
12145;SDS011;6136;47.032;15.398;2023-02-18T06:50:45;8.33;;;5.07;;
12145;SDS011;6136;47.032;15.398;2023-02-18T06:53:13;8.47;;;5.13;;
12145;SDS011;6136;47.032;15.398;2023-02-18T06:55:42;7.53;;;4.67;;
12145;SDS011;6136;47.032;15.398;2023-02-18T06:58:11;6.80;;;4.63;;
12145;SDS011;6136;47.032;15.398;2023-02-18T07:00:41;5.90;;;4.47;;
12145;SDS011;6136;47.032;15.398;2023-02-18T07:03:10;10.77;;;5.00;;
12145;SDS011;6136;47.032;15.398;2023-02-18T07:05:39;9.17;;;4.60;;
12145;SDS011;6136;47.032;15.398;2023-02-18T07:08:07;8.17;;;5.47;;
12145;SDS011;6136;47.032;15.398;2023-02-18T07:10:36;15.43;;;9.47;;
12145;SDS011;6136;47.032;15.398;2023-02-18T07:13:04;17.87;;;10.00;;
12145;SDS011;6136;47.032;15.398;2023-02-18T07:15:32;17.47;;;9.17;;
12145;SDS011;6136;47.032;15.398;2023-02-18T07:18:02;14.33;;;9.30;;
12145;SDS011;6136;47.032;15.398;2023-02-18T07:20:30;16.47;;;7.67;;
12145;SDS011;6136;47.032;15.398;2023-02-18T07:22:59;11.67;;;6.80;;
12145;SDS011;6136;47.032;15.398;2023-02-18T07:25:27;15.07;;;7.43;;
12145;SDS011;6136;47.032;15.398;2023-02-18T07:27:55;8.47;;;5.73;;
12145;SDS011;6136;47.032;15.398;2023-02-18T07:30:23;6.83;;;4.80;;
12145;SDS011;6136;47.032;15.398;2023-02-18T07:32:52;7.47;;;5.10;;
12145;SDS011;6136;47.032;15.398;2023-02-18T07:35:22;8.70;;;5.27;;
12145;SDS011;6136;47.032;15.398;2023-02-18T07:37:50;8.27;;;6.53;;
12145;SDS011;6136;47.032;15.398;2023-02-18T07:40:19;8.70;;;6.17;;
12145;SDS011;6136;47.032;15.398;2023-02-18T07:42:48;8.00;;;6.00;;
12145;SDS011;6136;47.032;15.398;2023-02-18T07:45:17;23.63;;;13.30;;
12145;SDS011;6136;47.032;15.398;2023-02-18T07:47:46;11.93;;;8.50;;
12145;SDS011;6136;47.032;15.398;2023-02-18T07:50:14;10.10;;;7.30;;
12145;SDS011;6136;47.032;15.398;2023-02-18T07:52:43;10.30;;;6.57;;
12145;SDS011;6136;47.032;15.398;2023-02-18T07:55:11;9.27;;;6.40;;
12145;SDS011;6136;47.032;15.398;2023-02-18T07:57:40;12.87;;;7.80;;
12145;SDS011;6136;47.032;15.398;2023-02-18T08:00:22;10.07;;;7.30;;
12145;SDS011;6136;47.032;15.398;2023-02-18T08:02:50;10.00;;;5.83;;
12145;SDS011;6136;47.032;15.398;2023-02-18T08:05:19;10.17;;;5.27;;
12145;SDS011;6136;47.032;15.398;2023-02-18T08:07:49;9.60;;;6.97;;
12145;SDS011;6136;47.032;15.398;2023-02-18T08:10:20;10.27;;;6.40;;
12145;SDS011;6136;47.032;15.398;2023-02-18T08:12:48;7.13;;;6.13;;
12145;SDS011;6136;47.032;15.398;2023-02-18T08:15:16;9.30;;;6.40;;
12145;SDS011;6136;47.032;15.398;2023-02-18T08:17:48;9.00;;;6.00;;
12145;SDS011;6136;47.032;15.398;2023-02-18T08:20:16;7.87;;;6.00;;
12145;SDS011;6136;47.032;15.398;2023-02-18T08:22:44;10.80;;;6.20;;
12145;SDS011;6136;47.032;15.398;2023-02-18T08:25:14;13.43;;;7.70;;
12145;SDS011;6136;47.032;15.398;2023-02-18T08:27:55;10.27;;;6.60;;
12145;SDS011;6136;47.032;15.398;2023-02-18T08:30:23;9.50;;;6.90;;
12145;SDS011;6136;47.032;15.398;2023-02-18T08:32:52;10.97;;;6.37;;
12145;SDS011;6136;47.032;15.398;2023-02-18T08:35:20;15.27;;;6.93;;
12145;SDS011;6136;47.032;15.398;2023-02-18T08:37:49;10.27;;;6.20;;
12145;SDS011;6136;47.032;15.398;2023-02-18T08:40:21;16.37;;;6.80;;
12145;SDS011;6136;47.032;15.398;2023-02-18T08:42:49;10.63;;;5.93;;
12145;SDS011;6136;47.032;15.398;2023-02-18T08:45:17;9.43;;;6.03;;
12145;SDS011;6136;47.032;15.398;2023-02-18T08:47:45;10.13;;;6.23;;
12145;SDS011;6136;47.032;15.398;2023-02-18T08:50:34;11.37;;;6.67;;
12145;SDS011;6136;47.032;15.398;2023-02-18T08:53:02;14.57;;;7.23;;
12145;SDS011;6136;47.032;15.398;2023-02-18T08:55:32;9.90;;;6.67;;
12145;SDS011;6136;47.032;15.398;2023-02-18T08:58:03;11.37;;;7.27;;
12145;SDS011;6136;47.032;15.398;2023-02-18T09:00:33;11.63;;;6.47;;
12145;SDS011;6136;47.032;15.398;2023-02-18T09:03:01;13.00;;;7.47;;
12145;SDS011;6136;47.032;15.398;2023-02-18T09:05:30;13.20;;;8.67;;
12145;SDS011;6136;47.032;15.398;2023-02-18T09:07:58;10.40;;;7.00;;
12145;SDS011;6136;47.032;15.398;2023-02-18T09:10:26;14.73;;;8.40;;
12145;SDS011;6136;47.032;15.398;2023-02-18T09:12:56;9.13;;;6.77;;
12145;SDS011;6136;47.032;15.398;2023-02-18T09:15:24;9.37;;;7.53;;
12145;SDS011;6136;47.032;15.398;2023-02-18T09:17:52;13.13;;;7.27;;
12145;SDS011;6136;47.032;15.398;2023-02-18T09:20:20;9.30;;;6.63;;
12145;SDS011;6136;47.032;15.398;2023-02-18T09:22:49;9.07;;;6.83;;
12145;SDS011;6136;47.032;15.398;2023-02-18T09:25:17;6.82;;;5.78;;
12145;SDS011;6136;47.032;15.398;2023-02-18T09:27:45;7.07;;;5.55;;
12145;SDS011;6136;47.032;15.398;2023-02-18T09:30:15;8.32;;;5.90;;
12145;SDS011;6136;47.032;15.398;2023-02-18T09:32:43;6.55;;;5.03;;
12145;SDS011;6136;47.032;15.398;2023-02-18T09:35:11;6.65;;;4.75;;
12145;SDS011;6136;47.032;15.398;2023-02-18T09:37:40;9.68;;;5.57;;
12145;SDS011;6136;47.032;15.398;2023-02-18T09:40:09;8.50;;;5.05;;
12145;SDS011;6136;47.032;15.398;2023-02-18T09:42:50;6.40;;;5.18;;
12145;SDS011;6136;47.032;15.398;2023-02-18T09:45:23;6.72;;;5.20;;
12145;SDS011;6136;47.032;15.398;2023-02-18T09:47:52;10.65;;;4.97;;
12145;SDS011;6136;47.032;15.398;2023-02-18T09:50:21;7.63;;;5.10;;
12145;SDS011;6136;47.032;15.398;2023-02-18T09:52:50;6.45;;;5.05;;
12145;SDS011;6136;47.032;15.398;2023-02-18T09:55:20;7.30;;;4.43;;
12145;SDS011;6136;47.032;15.398;2023-02-18T09:57:51;9.40;;;5.47;;
12145;SDS011;6136;47.032;15.398;2023-02-18T10:00:22;9.02;;;4.70;;
12145;SDS011;6136;47.032;15.398;2023-02-18T10:02:56;7.97;;;4.47;;
12145;SDS011;6136;47.032;15.398;2023-02-18T10:05:25;4.70;;;4.15;;
12145;SDS011;6136;47.032;15.398;2023-02-18T10:07:57;7.82;;;5.10;;
12145;SDS011;6136;47.032;15.398;2023-02-18T10:10:33;5.55;;;4.65;;
12145;SDS011;6136;47.032;15.398;2023-02-18T10:13:06;5.05;;;4.47;;
12145;SDS011;6136;47.032;15.398;2023-02-18T10:15:42;6.55;;;5.30;;
12145;SDS011;6136;47.032;15.398;2023-02-18T10:18:18;9.18;;;6.28;;
12145;SDS011;6136;47.032;15.398;2023-02-18T10:20:51;8.30;;;6.80;;
12145;SDS011;6136;47.032;15.398;2023-02-18T10:23:31;10.30;;;6.93;;
12145;SDS011;6136;47.032;15.398;2023-02-18T10:26:03;12.55;;;7.63;;
12145;SDS011;6136;47.032;15.398;2023-02-18T10:28:35;7.13;;;6.35;;
12145;SDS011;6136;47.032;15.398;2023-02-18T10:31:06;8.70;;;6.80;;
12145;SDS011;6136;47.032;15.398;2023-02-18T10:33:39;10.43;;;7.40;;
12145;SDS011;6136;47.032;15.398;2023-02-18T10:36:20;7.88;;;5.97;;
12145;SDS011;6136;47.032;15.398;2023-02-18T10:39:06;8.75;;;5.88;;
12145;SDS011;6136;47.032;15.398;2023-02-18T10:41:48;6.85;;;5.97;;
12145;SDS011;6136;47.032;15.398;2023-02-18T10:44:27;8.45;;;6.13;;
12145;SDS011;6136;47.032;15.398;2023-02-18T10:47:08;7.93;;;6.50;;
12145;SDS011;6136;47.032;15.398;2023-02-18T10:49:54;8.77;;;6.57;;
12145;SDS011;6136;47.032;15.398;2023-02-18T10:52:25;8.02;;;6.45;;
12145;SDS011;6136;47.032;15.398;2023-02-18T10:55:00;6.47;;;5.70;;
12145;SDS011;6136;47.032;15.398;2023-02-18T10:57:31;7.00;;;6.30;;
12145;SDS011;6136;47.032;15.398;2023-02-18T11:00:00;8.48;;;5.75;;
12145;SDS011;6136;47.032;15.398;2023-02-18T11:02:38;7.05;;;6.07;;
12145;SDS011;6136;47.032;15.398;2023-02-18T11:05:15;9.88;;;5.78;;
12145;SDS011;6136;47.032;15.398;2023-02-18T11:07:46;7.43;;;6.65;;
12145;SDS011;6136;47.032;15.398;2023-02-18T11:10:18;11.95;;;6.93;;
12145;SDS011;6136;47.032;15.398;2023-02-18T11:12:52;8.13;;;6.43;;
12145;SDS011;6136;47.032;15.398;2023-02-18T11:15:25;6.93;;;5.97;;
12145;SDS011;6136;47.032;15.398;2023-02-18T11:17:56;7.80;;;5.90;;
12145;SDS011;6136;47.032;15.398;2023-02-18T11:20:38;5.72;;;5.10;;
12145;SDS011;6136;47.032;15.398;2023-02-18T11:23:17;4.93;;;4.32;;
12145;SDS011;6136;47.032;15.398;2023-02-18T11:25:55;5.80;;;4.63;;
12145;SDS011;6136;47.032;15.398;2023-02-18T11:28:28;6.00;;;5.10;;
12145;SDS011;6136;47.032;15.398;2023-02-18T11:31:03;7.35;;;5.40;;
12145;SDS011;6136;47.032;15.398;2023-02-18T11:33:34;5.47;;;4.97;;
12145;SDS011;6136;47.032;15.398;2023-02-18T11:36:09;7.00;;;5.43;;
12145;SDS011;6136;47.032;15.398;2023-02-18T11:38:46;6.47;;;5.75;;
12145;SDS011;6136;47.032;15.398;2023-02-18T11:41:17;6.65;;;5.90;;
12145;SDS011;6136;47.032;15.398;2023-02-18T11:43:48;7.95;;;5.85;;
12145;SDS011;6136;47.032;15.398;2023-02-18T11:46:19;9.85;;;5.60;;
12145;SDS011;6136;47.032;15.398;2023-02-18T11:48:50;6.90;;;6.20;;
12145;SDS011;6136;47.032;15.398;2023-02-18T11:51:20;7.30;;;5.55;;
12145;SDS011;6136;47.032;15.398;2023-02-18T11:53:53;10.07;;;6.40;;
12145;SDS011;6136;47.032;15.398;2023-02-18T11:56:25;7.75;;;6.40;;
12145;SDS011;6136;47.032;15.398;2023-02-18T11:58:56;7.85;;;5.97;;
12145;SDS011;6136;47.032;15.398;2023-02-18T12:01:35;10.75;;;6.10;;
12145;SDS011;6136;47.032;15.398;2023-02-18T12:04:12;10.85;;;7.47;;
12145;SDS011;6136;47.032;15.398;2023-02-18T12:06:48;11.40;;;6.70;;
12145;SDS011;6136;47.032;15.398;2023-02-18T12:09:22;8.77;;;7.47;;
12145;SDS011;6136;47.032;15.398;2023-02-18T12:11:55;11.10;;;7.40;;
12145;SDS011;6136;47.032;15.398;2023-02-18T12:14:28;8.32;;;6.63;;
12145;SDS011;6136;47.032;15.398;2023-02-18T12:17:07;9.80;;;8.02;;
12145;SDS011;6136;47.032;15.398;2023-02-18T12:19:55;11.43;;;7.32;;
12145;SDS011;6136;47.032;15.398;2023-02-18T12:22:38;10.45;;;7.10;;
12145;SDS011;6136;47.032;15.398;2023-02-18T12:25:16;9.40;;;6.43;;
12145;SDS011;6136;47.032;15.398;2023-02-18T12:27:55;8.27;;;6.22;;
12145;SDS011;6136;47.032;15.398;2023-02-18T12:30:39;7.88;;;6.18;;
12145;SDS011;6136;47.032;15.398;2023-02-18T12:33:24;8.65;;;6.68;;
12145;SDS011;6136;47.032;15.398;2023-02-18T12:36:06;10.88;;;7.05;;
12145;SDS011;6136;47.032;15.398;2023-02-18T12:38:53;9.00;;;6.85;;
12145;SDS011;6136;47.032;15.398;2023-02-18T12:44:24;10.63;;;7.18;;
12145;SDS011;6136;47.032;15.398;2023-02-18T12:47:07;8.07;;;7.28;;
12145;SDS011;6136;47.032;15.398;2023-02-18T12:53:10;9.18;;;7.10;;
12145;SDS011;6136;47.032;15.398;2023-02-18T12:56:04;10.55;;;7.07;;
12145;SDS011;6136;47.032;15.398;2023-02-18T12:58:52;9.82;;;7.18;;
12145;SDS011;6136;47.032;15.398;2023-02-18T13:01:30;8.45;;;7.10;;
12145;SDS011;6136;47.032;15.398;2023-02-18T13:13:17;10.32;;;8.43;;
12145;SDS011;6136;47.032;15.398;2023-02-18T13:15:48;9.85;;;7.13;;
12145;SDS011;6136;47.032;15.398;2023-02-18T13:18:21;10.93;;;8.80;;
12145;SDS011;6136;47.032;15.398;2023-02-18T13:20:55;11.90;;;7.70;;
12145;SDS011;6136;47.032;15.398;2023-02-18T13:23:27;10.38;;;7.22;;
12145;SDS011;6136;47.032;15.398;2023-02-18T13:26:00;11.00;;;8.13;;
12145;SDS011;6136;47.032;15.398;2023-02-18T13:28:33;8.95;;;7.60;;
12145;SDS011;6136;47.032;15.398;2023-02-18T13:31:14;12.13;;;7.53;;
12145;SDS011;6136;47.032;15.398;2023-02-18T13:33:55;9.43;;;7.47;;
12145;SDS011;6136;47.032;15.398;2023-02-18T13:36:32;11.75;;;7.07;;
12145;SDS011;6136;47.032;15.398;2023-02-18T13:39:11;12.60;;;7.45;;
12145;SDS011;6136;47.032;15.398;2023-02-18T13:41:46;10.25;;;7.50;;
12145;SDS011;6136;47.032;15.398;2023-02-18T13:47:35;14.07;;;8.30;;
12145;SDS011;6136;47.032;15.398;2023-02-18T13:50:13;12.38;;;7.80;;
12145;SDS011;6136;47.032;15.398;2023-02-18T13:52:43;11.77;;;8.00;;
12145;SDS011;6136;47.032;15.398;2023-02-18T13:55:15;11.13;;;7.90;;
12145;SDS011;6136;47.032;15.398;2023-02-18T13:57:47;10.80;;;7.55;;
12145;SDS011;6136;47.032;15.398;2023-02-18T14:00:22;10.07;;;7.93;;
12145;SDS011;6136;47.032;15.398;2023-02-18T14:02:56;11.15;;;8.00;;
12145;SDS011;6136;47.032;15.398;2023-02-18T14:05:36;9.57;;;7.38;;
12145;SDS011;6136;47.032;15.398;2023-02-18T14:08:11;9.38;;;6.72;;
12145;SDS011;6136;47.032;15.398;2023-02-18T14:10:41;9.50;;;7.10;;
12145;SDS011;6136;47.032;15.398;2023-02-18T14:13:24;12.38;;;7.97;;
12145;SDS011;6136;47.032;15.398;2023-02-18T14:16:07;11.02;;;7.50;;
12145;SDS011;6136;47.032;15.398;2023-02-18T14:21:53;14.48;;;8.13;;
12145;SDS011;6136;47.032;15.398;2023-02-18T14:24:55;12.18;;;7.72;;
12145;SDS011;6136;47.032;15.398;2023-02-18T14:27:27;9.65;;;7.60;;
12145;SDS011;6136;47.032;15.398;2023-02-18T14:30:00;9.57;;;7.22;;
12145;SDS011;6136;47.032;15.398;2023-02-18T14:32:32;13.60;;;8.43;;
12145;SDS011;6136;47.032;15.398;2023-02-18T14:35:07;8.77;;;7.03;;
12145;SDS011;6136;47.032;15.398;2023-02-18T14:44:10;9.07;;;7.43;;
12145;SDS011;6136;47.032;15.398;2023-02-18T14:46:50;10.52;;;7.65;;
12145;SDS011;6136;47.032;15.398;2023-02-18T14:49:36;15.52;;;7.68;;
12145;SDS011;6136;47.032;15.398;2023-02-18T14:52:11;10.10;;;7.20;;
12145;SDS011;6136;47.032;15.398;2023-02-18T14:54:47;12.20;;;8.35;;
12145;SDS011;6136;47.032;15.398;2023-02-18T14:57:17;11.73;;;7.57;;
12145;SDS011;6136;47.032;15.398;2023-02-18T14:59:56;12.27;;;8.00;;
12145;SDS011;6136;47.032;15.398;2023-02-18T15:02:28;11.55;;;8.18;;
12145;SDS011;6136;47.032;15.398;2023-02-18T15:05:07;14.97;;;8.50;;
12145;SDS011;6136;47.032;15.398;2023-02-18T15:07:53;14.37;;;9.70;;
12145;SDS011;6136;47.032;15.398;2023-02-18T15:10:24;13.63;;;9.03;;
12145;SDS011;6136;47.032;15.398;2023-02-18T15:12:59;13.47;;;7.87;;
12145;SDS011;6136;47.032;15.398;2023-02-18T15:15:31;12.30;;;8.77;;
12145;SDS011;6136;47.032;15.398;2023-02-18T15:18:02;12.17;;;9.43;;
12145;SDS011;6136;47.032;15.398;2023-02-18T15:20:33;16.80;;;8.77;;
12145;SDS011;6136;47.032;15.398;2023-02-18T15:23:02;14.53;;;9.63;;
12145;SDS011;6136;47.032;15.398;2023-02-18T15:25:31;14.87;;;9.77;;
12145;SDS011;6136;47.032;15.398;2023-02-18T15:27:59;23.00;;;11.00;;
12145;SDS011;6136;47.032;15.398;2023-02-18T15:30:29;16.20;;;9.97;;
12145;SDS011;6136;47.032;15.398;2023-02-18T15:32:59;23.23;;;11.33;;
12145;SDS011;6136;47.032;15.398;2023-02-18T15:35:29;18.73;;;10.93;;
12145;SDS011;6136;47.032;15.398;2023-02-18T15:38:01;17.50;;;9.43;;
12145;SDS011;6136;47.032;15.398;2023-02-18T15:40:31;13.80;;;9.07;;
12145;SDS011;6136;47.032;15.398;2023-02-18T15:43:03;14.33;;;9.73;;